sensor_id;sensor_type;location;lat;lon;timestamp;pressure;altitude;pressure_sealevel;temperature;humidity
25944;BME280;13742;49.306;8.636;2022-12-08T00:00:53;100224.69;;;3.59;95.48
25944;BME280;13742;49.306;8.636;2022-12-08T00:01:53;100220.11;;;3.59;95.27
25944;BME280;13742;49.306;8.636;2022-12-08T00:02:53;100221.87;;;3.61;95.93
25944;BME280;13742;49.306;8.636;2022-12-08T00:03:53;100219.02;;;3.61;95.69
25944;BME280;13742;49.306;8.636;2022-12-08T00:04:58;100216.22;;;3.62;95.54
25944;BME280;13742;49.306;8.636;2022-12-08T00:05:58;100216.86;;;3.62;95.35
25944;BME280;13742;49.306;8.636;2022-12-08T00:06:58;100212.75;;;3.62;95.34
25944;BME280;13742;49.306;8.636;2022-12-08T00:07:58;100211.31;;;3.62;95.33
25944;BME280;13742;49.306;8.636;2022-12-08T00:08:58;100208.87;;;3.62;95.55
25944;BME280;13742;49.306;8.636;2022-12-08T00:09:53;100207.34;;;3.63;95.39
25944;BME280;13742;49.306;8.636;2022-12-08T00:10:53;100206.74;;;3.62;95.29
25944;BME280;13742;49.306;8.636;2022-12-08T00:12:12;100205.64;;;3.62;95.18
25944;BME280;13742;49.306;8.636;2022-12-08T00:12:53;100205.26;;;3.63;95.44
25944;BME280;13742;49.306;8.636;2022-12-08T00:13:53;100203.74;;;3.63;95.69
25944;BME280;13742;49.306;8.636;2022-12-08T00:14:53;100204.45;;;3.63;95.61
25944;BME280;13742;49.306;8.636;2022-12-08T00:15:58;100201.78;;;3.63;95.38
25944;BME280;13742;49.306;8.636;2022-12-08T00:16:53;100202.27;;;3.64;95.39
25944;BME280;13742;49.306;8.636;2022-12-08T00:17:53;100201.63;;;3.63;95.76
25944;BME280;13742;49.306;8.636;2022-12-08T00:18:53;100201.34;;;3.63;95.71
25944;BME280;13742;49.306;8.636;2022-12-08T00:19:53;100202.81;;;3.63;95.63
25944;BME280;13742;49.306;8.636;2022-12-08T00:20:54;100202.13;;;3.63;95.50
25944;BME280;13742;49.306;8.636;2022-12-08T00:21:53;100203.16;;;3.62;95.76
25944;BME280;13742;49.306;8.636;2022-12-08T00:22:53;100195.92;;;3.60;95.86
25944;BME280;13742;49.306;8.636;2022-12-08T00:23:53;100196.64;;;3.62;95.88
25944;BME280;13742;49.306;8.636;2022-12-08T00:24:53;100195.69;;;3.62;96.04
25944;BME280;13742;49.306;8.636;2022-12-08T00:25:53;100198.97;;;3.63;95.75
25944;BME280;13742;49.306;8.636;2022-12-08T00:26:53;100192.70;;;3.62;95.91
25944;BME280;13742;49.306;8.636;2022-12-08T00:27:53;100194.23;;;3.64;95.81
25944;BME280;13742;49.306;8.636;2022-12-08T00:28:53;100192.64;;;3.63;95.63
25944;BME280;13742;49.306;8.636;2022-12-08T00:29:53;100192.94;;;3.63;95.55
25944;BME280;13742;49.306;8.636;2022-12-08T00:30:53;100194.70;;;3.64;95.84
25944;BME280;13742;49.306;8.636;2022-12-08T00:31:53;100191.89;;;3.64;95.87
25944;BME280;13742;49.306;8.636;2022-12-08T00:32:53;100192.11;;;3.64;95.78
25944;BME280;13742;49.306;8.636;2022-12-08T00:33:53;100192.88;;;3.64;95.53
25944;BME280;13742;49.306;8.636;2022-12-08T00:34:53;100189.16;;;3.64;95.46
25944;BME280;13742;49.306;8.636;2022-12-08T00:35:53;100186.34;;;3.64;95.60
25944;BME280;13742;49.306;8.636;2022-12-08T00:36:53;100182.95;;;3.64;95.55
25944;BME280;13742;49.306;8.636;2022-12-08T00:37:53;100182.13;;;3.64;95.63
25944;BME280;13742;49.306;8.636;2022-12-08T00:38:53;100179.64;;;3.65;95.45
25944;BME280;13742;49.306;8.636;2022-12-08T00:39:53;100175.33;;;3.66;95.51
25944;BME280;13742;49.306;8.636;2022-12-08T00:40:53;100177.48;;;3.66;95.56
25944;BME280;13742;49.306;8.636;2022-12-08T00:41:58;100174.42;;;3.64;94.69
25944;BME280;13742;49.306;8.636;2022-12-08T00:42:53;100175.30;;;3.63;94.87
25944;BME280;13742;49.306;8.636;2022-12-08T00:43:53;100174.47;;;3.62;95.07
25944;BME280;13742;49.306;8.636;2022-12-08T00:44:53;100173.70;;;3.63;95.19
25944;BME280;13742;49.306;8.636;2022-12-08T00:45:53;100172.91;;;3.63;95.04
25944;BME280;13742;49.306;8.636;2022-12-08T00:46:53;100170.04;;;3.61;95.01
25944;BME280;13742;49.306;8.636;2022-12-08T00:47:53;100172.58;;;3.60;94.91
25944;BME280;13742;49.306;8.636;2022-12-08T00:48:53;100168.88;;;3.60;95.04
25944;BME280;13742;49.306;8.636;2022-12-08T00:49:53;100169.97;;;3.60;94.99
25944;BME280;13742;49.306;8.636;2022-12-08T00:50:53;100169.45;;;3.60;94.75
25944;BME280;13742;49.306;8.636;2022-12-08T00:51:53;100165.67;;;3.59;94.90
25944;BME280;13742;49.306;8.636;2022-12-08T00:52:53;100167.75;;;3.59;94.93
25944;BME280;13742;49.306;8.636;2022-12-08T00:53:53;100166.57;;;3.59;94.98
25944;BME280;13742;49.306;8.636;2022-12-08T00:54:53;100166.52;;;3.58;95.04
25944;BME280;13742;49.306;8.636;2022-12-08T00:55:53;100164.34;;;3.58;94.98
25944;BME280;13742;49.306;8.636;2022-12-08T00:56:53;100167.64;;;3.58;94.98
25944;BME280;13742;49.306;8.636;2022-12-08T00:57:53;100168.48;;;3.58;94.99
25944;BME280;13742;49.306;8.636;2022-12-08T00:58:53;100165.32;;;3.56;94.89
25944;BME280;13742;49.306;8.636;2022-12-08T00:59:53;100163.03;;;3.56;94.91
25944;BME280;13742;49.306;8.636;2022-12-08T01:00:53;100164.19;;;3.56;94.84
25944;BME280;13742;49.306;8.636;2022-12-08T01:01:53;100164.19;;;3.56;94.90
25944;BME280;13742;49.306;8.636;2022-12-08T01:02:53;100164.25;;;3.55;94.86
25944;BME280;13742;49.306;8.636;2022-12-08T01:03:53;100164.00;;;3.53;94.63
25944;BME280;13742;49.306;8.636;2022-12-08T01:04:53;100163.95;;;3.51;94.63
25944;BME280;13742;49.306;8.636;2022-12-08T01:05:53;100167.67;;;3.50;94.72
25944;BME280;13742;49.306;8.636;2022-12-08T01:06:53;100170.94;;;3.50;94.75
25944;BME280;13742;49.306;8.636;2022-12-08T01:07:53;100167.98;;;3.50;94.91
25944;BME280;13742;49.306;8.636;2022-12-08T01:08:53;100170.43;;;3.50;94.84
25944;BME280;13742;49.306;8.636;2022-12-08T01:09:53;100165.23;;;3.48;94.72
25944;BME280;13742;49.306;8.636;2022-12-08T01:10:53;100166.66;;;3.48;95.02
25944;BME280;13742;49.306;8.636;2022-12-08T01:11:53;100163.27;;;3.48;95.00
25944;BME280;13742;49.306;8.636;2022-12-08T01:12:53;100163.85;;;3.50;95.13
25944;BME280;13742;49.306;8.636;2022-12-08T01:13:53;100160.94;;;3.48;95.04
25944;BME280;13742;49.306;8.636;2022-12-08T01:14:53;100160.70;;;3.49;94.93
25944;BME280;13742;49.306;8.636;2022-12-08T01:15:53;100159.11;;;3.46;94.52
25944;BME280;13742;49.306;8.636;2022-12-08T01:16:53;100160.78;;;3.45;94.47
25944;BME280;13742;49.306;8.636;2022-12-08T01:17:53;100163.34;;;3.45;94.48
25944;BME280;13742;49.306;8.636;2022-12-08T01:18:53;100161.28;;;3.44;94.69
25944;BME280;13742;49.306;8.636;2022-12-08T01:19:53;100163.31;;;3.44;94.72
25944;BME280;13742;49.306;8.636;2022-12-08T01:20:53;100167.00;;;3.43;94.60
25944;BME280;13742;49.306;8.636;2022-12-08T01:21:53;100166.27;;;3.41;94.57
25944;BME280;13742;49.306;8.636;2022-12-08T01:22:53;100168.80;;;3.41;94.67
25944;BME280;13742;49.306;8.636;2022-12-08T01:23:53;100169.26;;;3.40;94.71
25944;BME280;13742;49.306;8.636;2022-12-08T01:24:53;100171.15;;;3.40;94.73
25944;BME280;13742;49.306;8.636;2022-12-08T01:25:53;100168.63;;;3.40;94.73
25944;BME280;13742;49.306;8.636;2022-12-08T01:26:53;100170.39;;;3.39;94.57
25944;BME280;13742;49.306;8.636;2022-12-08T01:27:53;100171.61;;;3.37;94.67
25944;BME280;13742;49.306;8.636;2022-12-08T01:28:53;100170.58;;;3.37;94.89
25944;BME280;13742;49.306;8.636;2022-12-08T01:29:53;100168.02;;;3.35;94.76
25944;BME280;13742;49.306;8.636;2022-12-08T01:30:53;100167.88;;;3.36;94.95
25944;BME280;13742;49.306;8.636;2022-12-08T01:31:53;100168.70;;;3.36;94.92
25944;BME280;13742;49.306;8.636;2022-12-08T01:32:53;100167.48;;;3.35;94.87
25944;BME280;13742;49.306;8.636;2022-12-08T01:33:53;100166.91;;;3.36;94.90
25944;BME280;13742;49.306;8.636;2022-12-08T01:34:53;100167.31;;;3.36;95.21
25944;BME280;13742;49.306;8.636;2022-12-08T01:35:54;100167.11;;;3.35;95.30
25944;BME280;13742;49.306;8.636;2022-12-08T01:36:53;100167.80;;;3.36;95.21
25944;BME280;13742;49.306;8.636;2022-12-08T01:37:53;100168.14;;;3.35;94.80
25944;BME280;13742;49.306;8.636;2022-12-08T01:38:53;100165.36;;;3.35;94.94
25944;BME280;13742;49.306;8.636;2022-12-08T01:39:53;100169.89;;;3.35;94.91
25944;BME280;13742;49.306;8.636;2022-12-08T01:40:53;100170.63;;;3.35;94.94
25944;BME280;13742;49.306;8.636;2022-12-08T01:41:53;100170.54;;;3.35;94.92
25944;BME280;13742;49.306;8.636;2022-12-08T01:42:53;100167.98;;;3.34;94.88
25944;BME280;13742;49.306;8.636;2022-12-08T01:43:54;100170.22;;;3.35;94.97
25944;BME280;13742;49.306;8.636;2022-12-08T01:45:12;100166.03;;;3.34;95.08
25944;BME280;13742;49.306;8.636;2022-12-08T01:45:53;100167.27;;;3.35;95.29
25944;BME280;13742;49.306;8.636;2022-12-08T01:46:53;100167.29;;;3.35;95.15
25944;BME280;13742;49.306;8.636;2022-12-08T01:47:54;100164.19;;;3.35;95.29
25944;BME280;13742;49.306;8.636;2022-12-08T01:48:54;100167.72;;;3.33;94.69
25944;BME280;13742;49.306;8.636;2022-12-08T01:49:53;100162.45;;;3.31;94.90
25944;BME280;13742;49.306;8.636;2022-12-08T01:50:53;100162.69;;;3.32;94.87
25944;BME280;13742;49.306;8.636;2022-12-08T01:53:53;100159.80;;;3.32;95.18
25944;BME280;13742;49.306;8.636;2022-12-08T01:54:57;100161.53;;;3.31;95.22
25944;BME280;13742;49.306;8.636;2022-12-08T01:55:57;100154.46;;;3.31;95.26
25944;BME280;13742;49.306;8.636;2022-12-08T01:57:54;100154.70;;;3.32;95.18
25944;BME280;13742;49.306;8.636;2022-12-08T01:58:53;100154.35;;;3.33;95.35
25944;BME280;13742;49.306;8.636;2022-12-08T02:00:12;100150.39;;;3.33;95.34
25944;BME280;13742;49.306;8.636;2022-12-08T02:00:53;100150.92;;;3.33;94.99
25944;BME280;13742;49.306;8.636;2022-12-08T02:01:53;100149.03;;;3.32;94.93
25944;BME280;13742;49.306;8.636;2022-12-08T02:02:57;100148.50;;;3.30;94.77
25944;BME280;13742;49.306;8.636;2022-12-08T02:04:53;100143.19;;;3.28;94.70
25944;BME280;13742;49.306;8.636;2022-12-08T02:05:53;100143.63;;;3.26;94.72
25944;BME280;13742;49.306;8.636;2022-12-08T02:06:53;100140.88;;;3.25;94.94
25944;BME280;13742;49.306;8.636;2022-12-08T02:07:53;100137.70;;;3.25;95.14
25944;BME280;13742;49.306;8.636;2022-12-08T02:08:54;100136.45;;;3.25;95.22
25944;BME280;13742;49.306;8.636;2022-12-08T02:09:53;100132.34;;;3.23;95.36
25944;BME280;13742;49.306;8.636;2022-12-08T02:10:53;100128.96;;;3.22;95.58
25944;BME280;13742;49.306;8.636;2022-12-08T02:11:53;100130.93;;;3.21;95.65
25944;BME280;13742;49.306;8.636;2022-12-08T02:12:53;100126.22;;;3.20;95.67
25944;BME280;13742;49.306;8.636;2022-12-08T02:13:53;100125.77;;;3.20;95.67
25944;BME280;13742;49.306;8.636;2022-12-08T02:14:53;100124.19;;;3.20;95.84
25944;BME280;13742;49.306;8.636;2022-12-08T02:16:01;100122.80;;;3.19;95.87
25944;BME280;13742;49.306;8.636;2022-12-08T02:18:37;100120.91;;;3.18;95.70
25944;BME280;13742;49.306;8.636;2022-12-08T02:22:59;100125.16;;;3.15;95.59
25944;BME280;13742;49.306;8.636;2022-12-08T02:23:58;100119.51;;;3.14;95.81
25944;BME280;13742;49.306;8.636;2022-12-08T02:24:59;100117.75;;;3.15;95.86
25944;BME280;13742;49.306;8.636;2022-12-08T02:25:58;100113.48;;;3.14;95.73
25944;BME280;13742;49.306;8.636;2022-12-08T02:26:58;100109.14;;;3.13;95.61
25944;BME280;13742;49.306;8.636;2022-12-08T02:27:58;100107.77;;;3.12;95.57
25944;BME280;13742;49.306;8.636;2022-12-08T02:29:01;100110.02;;;3.12;95.65
25944;BME280;13742;49.306;8.636;2022-12-08T02:30:01;100111.14;;;3.11;95.69
25944;BME280;13742;49.306;8.636;2022-12-08T02:36:56;100103.80;;;3.04;95.70
25944;BME280;13742;49.306;8.636;2022-12-08T02:39:57;100106.09;;;3.01;95.72
25944;BME280;13742;49.306;8.636;2022-12-08T02:40:58;100109.28;;;3.01;95.80
25944;BME280;13742;49.306;8.636;2022-12-08T02:42:00;100104.36;;;3.00;95.83
25944;BME280;13742;49.306;8.636;2022-12-08T02:43:59;100101.02;;;2.99;95.66
25944;BME280;13742;49.306;8.636;2022-12-08T02:44:54;100101.63;;;2.98;95.80
25944;BME280;13742;49.306;8.636;2022-12-08T02:45:57;100100.92;;;2.97;95.89
25944;BME280;13742;49.306;8.636;2022-12-08T02:46:54;100099.66;;;2.97;96.19
25944;BME280;13742;49.306;8.636;2022-12-08T02:47:53;100099.90;;;2.97;96.41
25944;BME280;13742;49.306;8.636;2022-12-08T02:48:53;100102.16;;;2.99;96.52
25944;BME280;13742;49.306;8.636;2022-12-08T02:49:56;100100.59;;;2.99;96.78
25944;BME280;13742;49.306;8.636;2022-12-08T02:50:53;100097.27;;;3.00;96.81
25944;BME280;13742;49.306;8.636;2022-12-08T02:52:02;100101.98;;;3.01;96.80
25944;BME280;13742;49.306;8.636;2022-12-08T02:52:53;100095.50;;;3.01;97.13
25944;BME280;13742;49.306;8.636;2022-12-08T02:53:53;100097.69;;;3.02;96.83
25944;BME280;13742;49.306;8.636;2022-12-08T02:54:55;100095.34;;;3.03;96.91
25944;BME280;13742;49.306;8.636;2022-12-08T02:59:02;100089.08;;;3.02;96.64
25944;BME280;13742;49.306;8.636;2022-12-08T03:02:55;100080.34;;;3.03;96.75
25944;BME280;13742;49.306;8.636;2022-12-08T03:06:56;100075.02;;;3.00;96.53
25944;BME280;13742;49.306;8.636;2022-12-08T03:11:14;100075.89;;;3.01;97.12
25944;BME280;13742;49.306;8.636;2022-12-08T03:12:55;100077.34;;;3.02;97.20
25944;BME280;13742;49.306;8.636;2022-12-08T03:13:53;100082.89;;;3.04;97.45
25944;BME280;13742;49.306;8.636;2022-12-08T03:14:53;100079.47;;;3.04;97.25
25944;BME280;13742;49.306;8.636;2022-12-08T03:15:53;100078.15;;;3.05;97.34
25944;BME280;13742;49.306;8.636;2022-12-08T03:16:54;100085.03;;;3.05;97.31
25944;BME280;13742;49.306;8.636;2022-12-08T03:17:54;100081.61;;;3.05;97.00
25944;BME280;13742;49.306;8.636;2022-12-08T03:18:58;100082.83;;;3.05;96.86
25944;BME280;13742;49.306;8.636;2022-12-08T03:19:53;100081.28;;;3.05;97.07
25944;BME280;13742;49.306;8.636;2022-12-08T03:20:53;100079.02;;;3.04;96.91
25944;BME280;13742;49.306;8.636;2022-12-08T03:21:53;100081.23;;;3.03;96.98
25944;BME280;13742;49.306;8.636;2022-12-08T03:22:53;100082.51;;;3.03;97.01
25944;BME280;13742;49.306;8.636;2022-12-08T03:23:53;100084.59;;;3.02;96.89
25944;BME280;13742;49.306;8.636;2022-12-08T03:24:53;100081.05;;;3.02;96.98
25944;BME280;13742;49.306;8.636;2022-12-08T03:25:55;100081.73;;;3.02;96.90
25944;BME280;13742;49.306;8.636;2022-12-08T03:26:55;100083.55;;;3.04;97.23
25944;BME280;13742;49.306;8.636;2022-12-08T03:27:53;100084.44;;;3.04;97.24
25944;BME280;13742;49.306;8.636;2022-12-08T03:28:53;100078.47;;;3.05;97.11
25944;BME280;13742;49.306;8.636;2022-12-08T03:29:53;100084.89;;;3.06;97.12
25944;BME280;13742;49.306;8.636;2022-12-08T03:30:53;100081.88;;;3.05;96.96
25944;BME280;13742;49.306;8.636;2022-12-08T03:31:53;100083.42;;;3.06;97.00
25944;BME280;13742;49.306;8.636;2022-12-08T03:33:53;100075.81;;;3.03;96.76
25944;BME280;13742;49.306;8.636;2022-12-08T03:34:53;100077.19;;;3.04;96.96
25944;BME280;13742;49.306;8.636;2022-12-08T03:35:53;100080.27;;;3.05;96.89
25944;BME280;13742;49.306;8.636;2022-12-08T03:36:53;100075.88;;;3.04;96.91
25944;BME280;13742;49.306;8.636;2022-12-08T03:38:00;100078.96;;;3.05;96.86
25944;BME280;13742;49.306;8.636;2022-12-08T03:38:53;100073.73;;;3.03;96.91
25944;BME280;13742;49.306;8.636;2022-12-08T03:39:53;100075.69;;;3.03;96.89
25944;BME280;13742;49.306;8.636;2022-12-08T03:40:58;100073.21;;;3.03;96.94
25944;BME280;13742;49.306;8.636;2022-12-08T03:41:53;100072.92;;;3.03;96.96
25944;BME280;13742;49.306;8.636;2022-12-08T03:42:53;100071.42;;;3.03;97.04
25944;BME280;13742;49.306;8.636;2022-12-08T03:43:53;100068.11;;;3.01;96.57
25944;BME280;13742;49.306;8.636;2022-12-08T03:44:53;100062.81;;;2.99;96.88
25944;BME280;13742;49.306;8.636;2022-12-08T03:45:53;100061.86;;;2.99;96.97
25944;BME280;13742;49.306;8.636;2022-12-08T03:46:53;100064.70;;;3.00;97.02
25944;BME280;13742;49.306;8.636;2022-12-08T03:47:53;100060.91;;;3.00;97.26
25944;BME280;13742;49.306;8.636;2022-12-08T03:48:53;100059.44;;;3.00;97.25
25944;BME280;13742;49.306;8.636;2022-12-08T03:49:53;100059.44;;;3.00;97.23
25944;BME280;13742;49.306;8.636;2022-12-08T03:50:53;100060.03;;;3.01;97.27
25944;BME280;13742;49.306;8.636;2022-12-08T03:51:53;100061.17;;;3.01;97.25
25944;BME280;13742;49.306;8.636;2022-12-08T03:52:53;100057.91;;;3.01;97.00
25944;BME280;13742;49.306;8.636;2022-12-08T03:53:53;100057.26;;;3.01;97.03
25944;BME280;13742;49.306;8.636;2022-12-08T03:54:53;100060.75;;;2.96;96.38
25944;BME280;13742;49.306;8.636;2022-12-08T03:55:53;100061.08;;;2.96;96.83
25944;BME280;13742;49.306;8.636;2022-12-08T03:56:53;100058.42;;;2.96;96.79
25944;BME280;13742;49.306;8.636;2022-12-08T03:57:53;100059.21;;;2.97;97.03
25944;BME280;13742;49.306;8.636;2022-12-08T03:58:53;100056.45;;;2.98;97.27
25944;BME280;13742;49.306;8.636;2022-12-08T03:59:53;100050.78;;;2.99;97.30
25944;BME280;13742;49.306;8.636;2022-12-08T04:00:53;100052.19;;;3.00;97.42
25944;BME280;13742;49.306;8.636;2022-12-08T04:01:53;100048.57;;;2.99;97.28
25944;BME280;13742;49.306;8.636;2022-12-08T04:02:53;100048.44;;;3.00;97.52
25944;BME280;13742;49.306;8.636;2022-12-08T04:03:53;100047.25;;;3.00;97.34
25944;BME280;13742;49.306;8.636;2022-12-08T04:04:53;100046.54;;;3.01;97.29
25944;BME280;13742;49.306;8.636;2022-12-08T04:05:53;100041.77;;;2.99;96.98
25944;BME280;13742;49.306;8.636;2022-12-08T04:06:53;100043.18;;;3.00;97.12
25944;BME280;13742;49.306;8.636;2022-12-08T04:07:55;100043.06;;;3.00;97.35
25944;BME280;13742;49.306;8.636;2022-12-08T04:08:53;100042.30;;;3.01;97.32
25944;BME280;13742;49.306;8.636;2022-12-08T04:09:53;100038.21;;;3.02;97.27
25944;BME280;13742;49.306;8.636;2022-12-08T04:10:53;100032.78;;;3.02;97.33
25944;BME280;13742;49.306;8.636;2022-12-08T04:11:53;100035.93;;;3.02;97.17
25944;BME280;13742;49.306;8.636;2022-12-08T04:12:53;100029.73;;;3.02;97.14
25944;BME280;13742;49.306;8.636;2022-12-08T04:13:52;100027.94;;;3.02;97.19
25944;BME280;13742;49.306;8.636;2022-12-08T04:14:53;100034.85;;;3.02;97.11
25944;BME280;13742;49.306;8.636;2022-12-08T04:15:53;100028.80;;;3.01;97.08
25944;BME280;13742;49.306;8.636;2022-12-08T04:16:53;100026.47;;;3.02;97.30
25944;BME280;13742;49.306;8.636;2022-12-08T04:17:53;100025.19;;;3.00;97.41
25944;BME280;13742;49.306;8.636;2022-12-08T04:18:53;100022.36;;;2.99;97.50
25944;BME280;13742;49.306;8.636;2022-12-08T04:19:53;100021.22;;;2.99;97.56
25944;BME280;13742;49.306;8.636;2022-12-08T04:20:53;100024.86;;;2.99;97.68
25944;BME280;13742;49.306;8.636;2022-12-08T04:21:53;100023.16;;;2.96;97.56
25944;BME280;13742;49.306;8.636;2022-12-08T04:22:53;100027.27;;;2.97;97.66
25944;BME280;13742;49.306;8.636;2022-12-08T04:23:53;100022.98;;;2.97;97.87
25944;BME280;13742;49.306;8.636;2022-12-08T04:24:53;100023.91;;;2.97;97.72
25944;BME280;13742;49.306;8.636;2022-12-08T04:25:53;100026.50;;;2.96;97.68
25944;BME280;13742;49.306;8.636;2022-12-08T04:26:53;100024.94;;;2.97;97.87
25944;BME280;13742;49.306;8.636;2022-12-08T04:27:52;100025.19;;;2.96;97.81
25944;BME280;13742;49.306;8.636;2022-12-08T04:28:52;100025.70;;;2.97;97.91
25944;BME280;13742;49.306;8.636;2022-12-08T04:29:52;100025.75;;;2.97;97.79
25944;BME280;13742;49.306;8.636;2022-12-08T04:30:53;100025.73;;;2.98;97.72
25944;BME280;13742;49.306;8.636;2022-12-08T04:31:52;100022.96;;;2.98;97.89
25944;BME280;13742;49.306;8.636;2022-12-08T04:32:57;100022.03;;;2.97;97.90
25944;BME280;13742;49.306;8.636;2022-12-08T04:33:52;100021.05;;;2.97;97.72
25944;BME280;13742;49.306;8.636;2022-12-08T04:34:52;100015.96;;;2.97;97.73
25944;BME280;13742;49.306;8.636;2022-12-08T04:35:52;100014.32;;;2.98;97.55
25944;BME280;13742;49.306;8.636;2022-12-08T04:36:52;100018.94;;;2.97;97.57
25944;BME280;13742;49.306;8.636;2022-12-08T04:37:53;100015.73;;;2.96;97.78
25944;BME280;13742;49.306;8.636;2022-12-08T04:38:53;100017.53;;;2.96;97.95
25944;BME280;13742;49.306;8.636;2022-12-08T04:39:52;100014.52;;;2.96;98.03
25944;BME280;13742;49.306;8.636;2022-12-08T04:40:52;100017.61;;;2.96;98.11
25944;BME280;13742;49.306;8.636;2022-12-08T04:41:52;100012.70;;;2.95;98.10
25944;BME280;13742;49.306;8.636;2022-12-08T04:42:52;100018.62;;;2.97;98.07
25944;BME280;13742;49.306;8.636;2022-12-08T04:43:52;100014.33;;;2.95;97.99
25944;BME280;13742;49.306;8.636;2022-12-08T04:44:52;100014.33;;;2.95;97.96
25944;BME280;13742;49.306;8.636;2022-12-08T04:45:52;100011.83;;;2.96;97.99
25944;BME280;13742;49.306;8.636;2022-12-08T04:46:52;100014.12;;;2.96;97.99
25944;BME280;13742;49.306;8.636;2022-12-08T04:47:52;100014.02;;;2.96;98.07
25944;BME280;13742;49.306;8.636;2022-12-08T04:48:52;100010.64;;;2.96;98.29
25944;BME280;13742;49.306;8.636;2022-12-08T04:49:52;100016.71;;;2.96;98.26
25944;BME280;13742;49.306;8.636;2022-12-08T04:50:52;100015.48;;;2.96;98.08
25944;BME280;13742;49.306;8.636;2022-12-08T04:51:52;100014.69;;;2.97;98.34
25944;BME280;13742;49.306;8.636;2022-12-08T04:52:53;100015.68;;;2.99;98.45
25944;BME280;13742;49.306;8.636;2022-12-08T04:53:52;100013.67;;;2.99;98.46
25944;BME280;13742;49.306;8.636;2022-12-08T04:54:52;100010.40;;;3.00;98.48
25944;BME280;13742;49.306;8.636;2022-12-08T04:55:52;100012.90;;;3.01;98.57
25944;BME280;13742;49.306;8.636;2022-12-08T04:56:52;100010.62;;;3.01;98.44
25944;BME280;13742;49.306;8.636;2022-12-08T04:57:52;100014.28;;;3.01;98.38
25944;BME280;13742;49.306;8.636;2022-12-08T04:58:52;100014.45;;;3.01;98.23
25944;BME280;13742;49.306;8.636;2022-12-08T04:59:52;100012.73;;;3.01;98.25
25944;BME280;13742;49.306;8.636;2022-12-08T05:00:53;100008.41;;;3.01;98.29
25944;BME280;13742;49.306;8.636;2022-12-08T05:01:52;100007.88;;;3.02;98.16
25944;BME280;13742;49.306;8.636;2022-12-08T05:02:52;100009.58;;;3.02;98.15
25944;BME280;13742;49.306;8.636;2022-12-08T05:03:53;100005.92;;;3.02;98.04
25944;BME280;13742;49.306;8.636;2022-12-08T05:04:52;100005.88;;;3.02;97.92
25944;BME280;13742;49.306;8.636;2022-12-08T05:05:52;100007.54;;;3.02;97.91
25944;BME280;13742;49.306;8.636;2022-12-08T05:06:52;100009.01;;;3.02;97.97
25944;BME280;13742;49.306;8.636;2022-12-08T05:07:52;100010.11;;;3.02;97.90
25944;BME280;13742;49.306;8.636;2022-12-08T05:08:53;100012.23;;;3.02;97.92
25944;BME280;13742;49.306;8.636;2022-12-08T05:09:52;100010.96;;;3.02;97.84
25944;BME280;13742;49.306;8.636;2022-12-08T05:10:52;100011.75;;;3.02;97.70
25944;BME280;13742;49.306;8.636;2022-12-08T05:11:52;100008.82;;;3.01;97.70
25944;BME280;13742;49.306;8.636;2022-12-08T05:12:52;100010.44;;;3.00;97.75
25944;BME280;13742;49.306;8.636;2022-12-08T05:13:52;100011.59;;;3.01;98.04
25944;BME280;13742;49.306;8.636;2022-12-08T05:14:52;100009.89;;;3.01;98.16
25944;BME280;13742;49.306;8.636;2022-12-08T05:15:52;100010.78;;;3.01;98.23
25944;BME280;13742;49.306;8.636;2022-12-08T05:16:52;100009.80;;;3.01;98.22
25944;BME280;13742;49.306;8.636;2022-12-08T05:17:53;100014.47;;;3.02;98.38
25944;BME280;13742;49.306;8.636;2022-12-08T05:18:52;100015.13;;;3.02;98.29
25944;BME280;13742;49.306;8.636;2022-12-08T05:19:52;100013.69;;;3.03;98.26
25944;BME280;13742;49.306;8.636;2022-12-08T05:20:52;100012.55;;;3.03;98.13
25944;BME280;13742;49.306;8.636;2022-12-08T05:21:52;100013.66;;;3.02;98.03
25944;BME280;13742;49.306;8.636;2022-12-08T05:22:53;100014.30;;;3.02;97.74
25944;BME280;13742;49.306;8.636;2022-12-08T05:23:53;100010.21;;;3.01;97.64
25944;BME280;13742;49.306;8.636;2022-12-08T05:24:52;100013.00;;;3.02;97.67
25944;BME280;13742;49.306;8.636;2022-12-08T05:25:52;100010.56;;;3.00;98.09
25944;BME280;13742;49.306;8.636;2022-12-08T05:26:52;100006.20;;;3.00;98.16
25944;BME280;13742;49.306;8.636;2022-12-08T05:27:52;100004.27;;;2.99;98.04
25944;BME280;13742;49.306;8.636;2022-12-08T05:28:52;100006.34;;;2.99;97.93
25944;BME280;13742;49.306;8.636;2022-12-08T05:29:52;100003.56;;;2.99;98.00
25944;BME280;13742;49.306;8.636;2022-12-08T05:30:52;100004.10;;;2.99;97.96
25944;BME280;13742;49.306;8.636;2022-12-08T05:31:53;100002.89;;;2.98;98.00
25944;BME280;13742;49.306;8.636;2022-12-08T05:32:52;100001.75;;;2.98;97.98
25944;BME280;13742;49.306;8.636;2022-12-08T05:33:52;99999.86;;;2.99;98.05
25944;BME280;13742;49.306;8.636;2022-12-08T05:34:52;100001.61;;;2.99;98.13
25944;BME280;13742;49.306;8.636;2022-12-08T05:35:52;99999.09;;;3.01;98.73
25944;BME280;13742;49.306;8.636;2022-12-08T05:36:52;99998.09;;;3.04;99.11
25944;BME280;13742;49.306;8.636;2022-12-08T05:37:52;100001.03;;;3.07;99.43
25944;BME280;13742;49.306;8.636;2022-12-08T05:38:54;100003.22;;;3.08;99.22
25944;BME280;13742;49.306;8.636;2022-12-08T05:39:53;99999.63;;;3.08;99.01
25944;BME280;13742;49.306;8.636;2022-12-08T05:40:53;99999.25;;;3.09;98.82
25944;BME280;13742;49.306;8.636;2022-12-08T05:41:53;99999.90;;;3.09;98.82
25944;BME280;13742;49.306;8.636;2022-12-08T05:42:52;100000.11;;;3.09;98.47
25944;BME280;13742;49.306;8.636;2022-12-08T05:43:52;99998.31;;;3.09;98.42
25944;BME280;13742;49.306;8.636;2022-12-08T05:44:52;99999.31;;;3.08;98.32
25944;BME280;13742;49.306;8.636;2022-12-08T05:45:52;99996.61;;;3.08;98.43
25944;BME280;13742;49.306;8.636;2022-12-08T05:46:52;99992.66;;;3.10;98.90
25944;BME280;13742;49.306;8.636;2022-12-08T05:47:52;99993.56;;;3.12;99.13
25944;BME280;13742;49.306;8.636;2022-12-08T05:48:52;99989.48;;;3.12;98.94
25944;BME280;13742;49.306;8.636;2022-12-08T05:49:52;99987.93;;;3.10;98.53